ENHV/HVG METAR and TAF weather

Enter ICAO airport designator
Station Type Date Time Source
ENHV METAR 2022/09/26 08:50 UTC NOAA

ENHV 260850Z AUTO 19008KT 120V240 9999 FEW220/// 09/02 Q1011


Station Type Date Time Source
ENHV Decoded METAR 2022/09/26 08:50 UTC NOAA

Honningsvag / Valan, Norway (ENHV) 71-01N 025-59E 14M
Sep 26, 2022 - 04:50 AM EDT / 2022.09.26 0850 UTC
Wind: from the S (190 degrees) at 9 MPH (8 KT) (direction variable):0
Visibility: greater than 7 mile(s):0
Sky conditions: mostly clear
Temperature: 48 F (9 C)
Dew Point: 35 F (2 C)
Relative Humidity: 61%
Pressure (altimeter): 29.85 in. Hg (1011 hPa)
ob: ENHV 260850Z AUTO 19008KT 120V240 9999 FEW220/// 09/02 Q1011
cycle: 9

Station Type Date Time Source
ENHV TAF UTC NOAA

Error!

Example: see airport list